• Join FlightAware (Why Join?)
  • Login
  • US Flag 
06:00PM EDT


 

Airport Tracker/Info


-or-


 

Live Flight TrackerFlight Track Log ✈ EJA721P ✈ 27-Jun-2013 ✈ KBUR - KSJC

Flight Track Log - Related Links

Times and Time Zones

All times are in EDT time to prevent confusion due to time zone crossing. See the EJA721P flight status page for this flight to view local times or setup timezone preferences in your user account.

Time Position Orientation Groundspeed Altitude Reporting Facility
EDT Latitude Longitude Course Direction KTS MPH feet Rate Location/Type
10:45AM 34.1733 -118.3528 321° Northwest 203 234 2,100  Level Los Angeles Center
10:46AM 34.1283 -118.4003 221° Southwest 213 245 4,500 3,180 Climbing Los Angeles Center
10:47AM 34.1239 -118.4783 266° West 274 315 8,700 3,420 Climbing Los Angeles Center
10:48AM 34.1886 -118.5389 322° Northwest 295 339 11,600 2,820 Climbing Los Angeles Center
10:49AM 34.2719 -118.6231 320° Northwest 325 374 14,600 2,160 Climbing Los Angeles Center
10:50AM 34.3589 -118.6686 337° Northwest 350 403 16,100 1,980 Climbing Los Angeles Center
10:51AM 34.9671 -118.9838 321° Northwest  Level FlightAware Approximate
10:52AM 34.4497 -118.7058 341° North 345 397 18,800  Level Los Angeles Center
10:53AM 34.5406 -118.7450 340° North 348 400 21,900 2,460 Climbing Los Angeles Center
10:54AM 34.6356 -118.7872 340° North 366 421 24,000 1,740 Climbing Los Angeles Center
10:55AM 34.7431 -118.8361 340° North 410 472 25,600 960 Climbing Los Angeles Center
10:56AM 34.8783 -118.9236 332° Northwest 476 548 26,000 180 Climbing Los Angeles Center
10:57AM 34.9783 -119.0297 319° Northwest 503 579 26,000  Level Los Angeles Center
10:58AM 35.0611 -119.1739 305° West 520 598 26,000  Level Los Angeles Center
10:59AM 35.1381 -119.3203 303° West 515 593 26,000  Level Los Angeles Center
11:00AM 35.2156 -119.4633 304° West 506 582 26,000  Level Los Angeles Center
11:01AM 35.3092 -119.6356 304° West 506 582 26,000  Level Los Angeles Center
11:02AM 35.3878 -119.7819 303° West 512 589 26,000  Level Los Angeles Center
11:03AM 35.4642 -119.9267 303° West 508 585 26,000  Level Los Angeles Center
11:04AM 35.5414 -120.0711 303° West 514 592 26,000  Level Los Angeles Center
11:05AM 35.6158 -120.2128 303° West 509 586 26,000  Level Los Angeles Center
11:06AM 35.6753 -120.3297 302° West 510 587 26,000  Level Oakland Center
11:07AM 35.7450 -120.4792 300° West 509 586 26,000  Level Oakland Center
11:08AM 35.8397 -120.6083 312° West 511 588 26,000  Level Oakland Center
11:09AM 35.9369 -120.7353 313° West 508 585 26,000  Level Oakland Center
11:10AM 36.0350 -120.8622 314° West 510 587 26,000  Level Oakland Center
11:11AM 36.1328 -120.9894 314° West 511 588 26,000 -120 Level Oakland Center
11:12AM 36.2494 -121.1419 314° West 511 588 25,800 -1,380 Descending Oakland Center
11:13AM 36.3475 -121.2714 313° West 513 590 23,200 -2,580 Descending Oakland Center
11:14AM 36.4381 -121.3936 313° West 487 560 20,600 -2,400 Descending Oakland Center
11:15AM 36.5300 -121.4908 320° Northwest 450 518 18,300 -2,220 Descending Oakland Center
11:16AM 36.6236 -121.5708 326° Northwest 427 491 16,100 -2,160 Descending Oakland Center
11:17AM 36.7317 -121.5964 349° North 418 481 14,000 -2,040 Descending Oakland Center
11:18AM 36.8350 -121.5861 North 396 456 12,000 -1,860 Descending Oakland Center
11:19AM 36.9186 -121.6028 351° North 354 407 10,200 -1,860 Descending Oakland Center
11:20AM 36.9958 -121.6411 338° Northwest 319 367 8,300 -1,980 Descending Oakland Center
11:21AM 37.0889 -121.6825 340° North 303 349 6,200 -1,620 Descending Oakland Center
11:22AM 37.1500 -121.7167 336° Northwest 275 316 5,300 -1,080 Descending Northern Cal TRACON
11:23AM 37.2167 -121.7667 329° Northwest 259 298 4,200 -1,380 Descending Northern Cal TRACON
11:24AM 37.2667 -121.8167 321° Northwest 237 273 2,600 -1,380 Descending Northern Cal TRACON
11:25AM 37.3000 -121.8667 310° West 180 207 1,600 -900 Descending Northern Cal TRACON
11:26AM 37.3333 -121.9000 322° Northwest 139 160 900 -720 Descending Northern Cal TRACON
11:29AM 37.3500 -121.9167 North  Level FlightAware Approximate